createdAt,value
2023-02-07T00:01:38.962Z,103801.94
2023-02-07T00:04:07.398Z,103797.81
2023-02-07T00:06:36.774Z,103803.16
2023-02-07T00:09:08.261Z,103785.50
2023-02-07T00:11:40.503Z,103795.03
2023-02-07T00:14:09.958Z,103792.09
2023-02-07T00:16:39.063Z,103782.22
2023-02-07T00:19:07.652Z,103788.47
2023-02-07T00:21:36.748Z,103794.66
2023-02-07T00:24:05.795Z,103788.53
2023-02-07T00:26:34.401Z,103788.38
2023-02-07T00:29:03.119Z,103784.75
2023-02-07T00:31:33.899Z,103790.03
2023-02-07T00:34:05.359Z,103799.91
2023-02-07T00:36:35.699Z,103797.84
2023-02-07T00:39:07.668Z,103788.66
2023-02-07T00:41:36.486Z,103775.66
2023-02-07T00:44:05.345Z,103773.84
2023-02-07T00:46:35.298Z,103779.84
2023-02-07T00:49:05.375Z,103781.84
2023-02-07T00:51:34.382Z,103778.44
2023-02-07T00:54:03.427Z,103783.00
2023-02-07T00:56:32.926Z,103782.09
2023-02-07T00:59:01.557Z,103786.00
2023-02-07T01:01:30.419Z,103788.34
2023-02-07T01:03:58.946Z,103784.97
2023-02-07T01:06:28.175Z,103780.91
2023-02-07T01:08:58.161Z,103774.63
2023-02-07T01:11:27.973Z,103776.25
2023-02-07T01:13:59.521Z,103774.56
2023-02-07T01:16:36.233Z,103777.16
2023-02-07T01:19:07.517Z,103773.00
2023-02-07T01:21:36.457Z,103769.03
2023-02-07T01:24:06.704Z,103777.09
2023-02-07T01:26:36.169Z,103781.78
2023-02-07T01:29:05.558Z,103784.75
2023-02-07T01:31:34.427Z,103771.56
2023-02-07T01:34:05.394Z,103764.75
2023-02-07T01:36:34.275Z,103770.81
2023-02-07T01:39:03.958Z,103778.16
2023-02-07T01:41:32.393Z,103772.56
2023-02-07T01:44:22.635Z,103773.34
2023-02-07T01:46:52.441Z,103779.31
2023-02-07T01:49:25.134Z,103781.13
2023-02-07T01:51:56.709Z,103773.25
2023-02-07T01:54:31.877Z,103778.72
2023-02-07T01:57:05.979Z,103782.41
2023-02-07T01:59:38.669Z,103774.19
2023-02-07T02:02:07.097Z,103777.28
2023-02-07T02:04:35.629Z,103785.44
2023-02-07T02:07:06.475Z,103776.69
2023-02-07T02:09:36.287Z,103772.78
2023-02-07T02:12:23.459Z,103777.66
2023-02-07T02:15:10.945Z,103779.72
2023-02-07T02:17:55.137Z,103769.72
2023-02-07T02:20:26.433Z,103777.41
2023-02-07T02:23:33.825Z,103773.03
2023-02-07T02:26:15.799Z,103771.53
2023-02-07T02:29:05.437Z,103773.91
2023-02-07T02:31:46.141Z,103777.94
2023-02-07T02:34:26.402Z,103765.88
2023-02-07T02:37:17.855Z,103761.22
2023-02-07T02:39:54.056Z,103772.78
2023-02-07T02:42:33.255Z,103777.63
2023-02-07T02:45:15.011Z,103775.66
2023-02-07T02:47:48.149Z,103779.09
2023-02-07T02:50:25.491Z,103770.44
2023-02-07T02:52:54.056Z,103781.63
2023-02-07T02:55:32.755Z,103778.22
2023-02-07T02:58:15.379Z,103772.53
2023-02-07T03:01:21.277Z,103775.16
2023-02-07T03:03:56.236Z,103768.13
2023-02-07T03:07:12.070Z,103776.59
2023-02-07T03:09:52.929Z,103771.31
2023-02-07T03:12:47.919Z,103778.63
2023-02-07T03:15:32.584Z,103777.72
2023-02-07T03:18:39.902Z,103784.91
2023-02-07T03:21:19.972Z,103780.66
2023-02-07T03:23:52.347Z,103783.44
2023-02-07T03:26:23.272Z,103786.22
2023-02-07T03:28:54.062Z,103787.41
2023-02-07T03:31:25.156Z,103776.13
2023-02-07T03:34:04.356Z,103780.88
2023-02-07T03:36:40.031Z,103769.22
2023-02-07T03:39:09.076Z,103778.44
2023-02-07T03:42:11.891Z,103769.13
2023-02-07T03:44:42.053Z,103771.25
2023-02-07T03:47:10.433Z,103776.03
2023-02-07T03:49:38.812Z,103765.06
2023-02-07T03:52:07.245Z,103763.13
2023-02-07T03:54:35.803Z,103763.19
2023-02-07T03:57:04.563Z,103762.91
2023-02-07T03:59:33.010Z,103764.28
2023-02-07T04:02:02.235Z,103762.81
2023-02-07T04:04:30.800Z,103753.66
2023-02-07T04:06:59.524Z,103754.00
2023-02-07T04:09:28.014Z,103747.72
2023-02-07T04:11:56.483Z,103744.38
2023-02-07T04:14:25.082Z,103744.63
2023-02-07T04:16:53.469Z,103754.41
2023-02-07T04:19:22.059Z,103741.81
2023-02-07T04:21:50.519Z,103747.28
2023-02-07T04:24:19.270Z,103750.84
2023-02-07T04:26:47.732Z,103762.69
2023-02-07T04:29:16.557Z,103754.50
2023-02-07T04:31:45.028Z,103747.34
2023-02-07T04:34:13.448Z,103757.41
2023-02-07T04:36:41.883Z,103745.38
2023-02-07T04:39:10.268Z,103755.44
2023-02-07T04:41:38.691Z,103758.03
2023-02-07T04:44:07.173Z,103745.06
2023-02-07T04:46:35.629Z,103745.38
2023-02-07T04:49:04.354Z,103744.81
2023-02-07T04:51:33.199Z,103739.22
2023-02-07T04:54:01.676Z,103734.25
2023-02-07T04:56:30.751Z,103731.44
2023-02-07T04:58:59.250Z,103737.41
2023-02-07T05:01:27.672Z,103745.75
2023-02-07T05:03:56.235Z,103746.63
2023-02-07T05:06:24.651Z,103747.22
2023-02-07T05:08:53.151Z,103750.16
2023-02-07T05:11:21.690Z,103743.91
2023-02-07T05:13:50.140Z,103753.09
2023-02-07T05:16:18.568Z,103748.50
2023-02-07T05:18:46.996Z,103759.91
2023-02-07T05:21:15.501Z,103757.78
2023-02-07T05:23:43.923Z,103758.59
2023-02-07T05:26:12.461Z,103759.31
2023-02-07T05:28:40.810Z,103761.16
2023-02-07T05:31:10.030Z,103761.88
2023-02-07T05:33:38.891Z,103770.78
2023-02-07T05:36:07.929Z,103764.44
2023-02-07T05:38:36.457Z,103763.72
2023-02-07T05:41:05.079Z,103779.75
2023-02-07T05:43:33.545Z,103776.41
2023-02-07T05:46:01.979Z,103781.63
2023-02-07T05:48:30.414Z,103771.09
2023-02-07T05:50:58.971Z,103776.88
2023-02-07T05:53:27.499Z,103777.28
2023-02-07T05:55:55.980Z,103767.19
2023-02-07T05:58:25.545Z,103784.50
2023-02-07T06:00:55.235Z,103782.22
2023-02-07T06:03:23.763Z,103786.66
2023-02-07T06:05:52.253Z,103796.41
2023-02-07T06:08:20.733Z,103798.69
2023-02-07T06:10:49.584Z,103790.00
2023-02-07T06:13:18.061Z,103793.97
2023-02-07T06:15:47.870Z,103795.19
2023-02-07T06:18:16.652Z,103796.34
2023-02-07T06:20:45.018Z,103801.69
2023-02-07T06:23:13.485Z,103788.16
2023-02-07T06:25:41.965Z,103797.00
2023-02-07T06:28:10.569Z,103799.16
2023-02-07T06:30:39.229Z,103800.31
2023-02-07T06:33:07.592Z,103803.09
2023-02-07T06:35:36.261Z,103809.88
2023-02-07T06:38:04.797Z,103812.88
2023-02-07T06:40:33.386Z,103818.53
2023-02-07T06:43:01.792Z,103822.84
2023-02-07T06:45:30.216Z,103827.31
2023-02-07T06:47:58.624Z,103836.38
2023-02-07T06:50:27.234Z,103836.69
2023-02-07T06:52:55.697Z,103825.19
2023-02-07T06:55:24.050Z,103830.84
2023-02-07T06:57:52.453Z,103836.63
2023-02-07T07:00:21.934Z,103835.47
2023-02-07T07:02:50.785Z,103837.59
2023-02-07T07:05:19.717Z,103828.19
2023-02-07T07:07:49.034Z,103831.19
2023-02-07T07:10:17.675Z,103835.91
2023-02-07T07:12:47.299Z,103841.38
2023-02-07T07:15:15.961Z,103857.41
2023-02-07T07:17:44.394Z,103846.75
2023-02-07T07:20:13.074Z,103851.94
2023-02-07T07:22:41.633Z,103843.81
2023-02-07T07:25:10.403Z,103849.69
2023-02-07T07:27:38.924Z,103847.22
2023-02-07T07:30:10.625Z,103853.91
2023-02-07T07:32:39.329Z,103862.63
2023-02-07T07:35:07.935Z,103859.47
2023-02-07T07:37:36.406Z,103861.22
2023-02-07T07:40:05.478Z,103864.06
2023-02-07T07:42:35.433Z,103871.78
2023-02-07T07:45:04.453Z,103869.16
2023-02-07T07:47:32.962Z,103870.06
2023-02-07T07:50:01.375Z,103870.78
2023-02-07T07:52:29.839Z,103867.63
2023-02-07T07:54:58.425Z,103871.06
2023-02-07T07:57:28.255Z,103880.63
2023-02-07T07:59:56.865Z,103883.78
2023-02-07T08:02:25.323Z,103873.66
2023-02-07T08:04:53.766Z,103874.28
2023-02-07T08:07:22.153Z,103876.91
2023-02-07T08:09:50.563Z,103880.06
2023-02-07T08:12:19.105Z,103885.59
2023-02-07T08:14:47.592Z,103884.53
2023-02-07T08:17:16.066Z,103885.31
2023-02-07T08:19:44.547Z,103889.59
2023-02-07T08:22:14.562Z,103890.28
2023-02-07T08:24:42.956Z,103885.84
2023-02-07T08:27:12.818Z,103887.63
2023-02-07T08:29:41.250Z,103891.91
2023-02-07T08:32:09.804Z,103890.31
2023-02-07T08:34:38.319Z,103889.03
2023-02-07T08:37:08.505Z,103883.00
2023-02-07T08:39:36.999Z,103895.28
2023-02-07T08:42:08.197Z,103891.75
2023-02-07T08:44:37.259Z,103895.09
2023-02-07T08:47:05.735Z,103885.91
2023-02-07T08:49:34.214Z,103891.31
2023-02-07T08:52:02.699Z,103894.69
2023-02-07T08:54:31.192Z,103887.72
2023-02-07T08:56:59.616Z,103889.47
2023-02-07T08:59:28.090Z,103887.75
2023-02-07T09:01:56.503Z,103885.63
2023-02-07T09:04:25.078Z,103877.44
2023-02-07T09:06:53.609Z,103877.44
2023-02-07T09:09:22.034Z,103872.00
2023-02-07T09:11:50.715Z,103880.22
2023-02-07T09:14:20.288Z,103880.50
2023-02-07T09:16:48.792Z,103875.25
2023-02-07T09:19:17.300Z,103865.72
2023-02-07T09:21:45.823Z,103873.38
2023-02-07T09:24:14.268Z,103870.16
2023-02-07T09:26:42.612Z,103864.41
2023-02-07T09:29:13.421Z,103867.81
2023-02-07T09:31:42.735Z,103864.84
2023-02-07T09:34:11.418Z,103863.50
2023-02-07T09:36:39.838Z,103862.78
2023-02-07T09:39:08.236Z,103866.31
2023-02-07T09:41:43.556Z,103861.81
2023-02-07T09:44:17.210Z,103861.66
2023-02-07T09:46:58.267Z,103869.69
2023-02-07T09:49:32.526Z,103849.16
2023-02-07T09:52:03.934Z,103845.44
2023-02-07T09:54:40.438Z,103848.94
2023-02-07T09:57:44.122Z,103857.38
2023-02-07T10:00:16.086Z,103849.66
2023-02-07T10:03:15.112Z,103851.16
2023-02-07T10:05:45.628Z,103845.72
2023-02-07T10:08:16.709Z,103845.59
2023-02-07T10:10:58.222Z,103841.78
2023-02-07T10:14:04.100Z,103849.06
2023-02-07T10:17:00.534Z,103844.06
2023-02-07T10:19:42.405Z,103846.69
2023-02-07T10:22:13.542Z,103862.19
2023-02-07T10:25:14.005Z,103852.78
2023-02-07T10:28:07.512Z,103855.28
2023-02-07T10:30:39.920Z,103854.00
2023-02-07T10:33:15.677Z,103851.28
2023-02-07T10:35:45.858Z,103854.13
2023-02-07T10:38:36.201Z,103844.47
2023-02-07T10:41:13.860Z,103847.56
2023-02-07T10:43:45.791Z,103848.06
2023-02-07T10:46:20.465Z,103837.00
2023-02-07T10:48:49.843Z,103848.41
2023-02-07T10:51:42.609Z,103849.00
2023-02-07T10:54:13.480Z,103850.81
2023-02-07T10:56:51.138Z,103844.19
2023-02-07T11:00:21.279Z,103843.22
2023-02-07T11:02:52.229Z,103830.19
2023-02-07T11:05:21.949Z,103833.41
2023-02-07T11:07:58.940Z,103841.75
2023-02-07T11:10:42.057Z,103834.28
2023-02-07T11:13:14.608Z,103836.47
2023-02-07T11:15:57.041Z,103832.19
2023-02-07T11:18:31.192Z,103832.88
2023-02-07T11:20:59.899Z,103829.22
2023-02-07T11:23:28.445Z,103825.44
2023-02-07T11:25:57.332Z,103829.16
2023-02-07T11:28:31.020Z,103829.25
2023-02-07T11:31:03.760Z,103839.06
2023-02-07T11:33:35.120Z,103834.59
2023-02-07T11:36:26.970Z,103835.78
2023-02-07T11:38:58.531Z,103828.38
2023-02-07T11:41:33.678Z,103833.88
2023-02-07T11:44:14.366Z,103828.25
2023-02-07T11:46:46.937Z,103831.09
2023-02-07T11:49:43.142Z,103824.66
2023-02-07T11:52:13.359Z,103828.91
2023-02-07T11:54:47.803Z,103825.28
2023-02-07T11:57:19.596Z,103834.66
2023-02-07T11:59:58.545Z,103835.50
2023-02-07T12:02:29.749Z,103829.88
2023-02-07T12:05:15.094Z,103829.03
2023-02-07T12:07:51.054Z,103833.88
2023-02-07T12:10:35.698Z,103832.44
2023-02-07T12:13:14.613Z,103825.50
2023-02-07T12:15:52.845Z,103834.97
2023-02-07T12:18:33.527Z,103817.84
2023-02-07T12:21:24.743Z,103824.59
2023-02-07T12:24:22.701Z,103821.63
2023-02-07T12:27:00.127Z,103817.88
2023-02-07T12:29:43.213Z,103815.91
2023-02-07T12:32:33.490Z,103817.25
2023-02-07T12:35:15.918Z,103816.28
2023-02-07T12:38:16.676Z,103825.13
2023-02-07T12:40:54.278Z,103817.81
2023-02-07T12:43:28.930Z,103811.03
2023-02-07T12:46:00.632Z,103825.34
2023-02-07T12:48:47.501Z,103823.22
2023-02-07T12:51:42.464Z,103819.84
2023-02-07T12:54:29.991Z,103829.38
2023-02-07T12:57:08.265Z,103825.00
2023-02-07T12:59:42.980Z,103823.31
2023-02-07T13:02:30.604Z,103820.31
2023-02-07T13:05:29.587Z,103822.00
2023-02-07T13:08:15.713Z,103823.25
2023-02-07T13:11:03.161Z,103811.09
2023-02-07T13:13:41.510Z,103815.19
2023-02-07T13:16:58.148Z,103811.88
2023-02-07T13:20:11.496Z,103819.53
2023-02-07T13:22:53.348Z,103819.00
2023-02-07T13:25:37.059Z,103815.41
2023-02-07T13:28:13.491Z,103818.94
2023-02-07T13:30:42.272Z,103815.31
2023-02-07T13:33:27.757Z,103810.63
2023-02-07T13:36:02.266Z,103803.97
2023-02-07T13:39:09.188Z,103807.47
2023-02-07T13:42:07.775Z,103797.84
2023-02-07T13:44:55.228Z,103799.53
2023-02-07T13:48:37.628Z,103795.50
2023-02-07T13:51:28.934Z,103790.06
2023-02-07T13:54:12.531Z,103792.31
2023-02-07T13:57:17.533Z,103778.13
2023-02-07T14:00:16.229Z,103778.38
2023-02-07T14:02:52.298Z,103776.81
2023-02-07T14:05:35.720Z,103778.38
2023-02-07T14:08:22.112Z,103779.75
2023-02-07T14:10:51.525Z,103774.91
2023-02-07T14:13:26.151Z,103773.50
2023-02-07T14:15:58.937Z,103776.88
2023-02-07T14:18:31.262Z,103773.72
2023-02-07T14:21:01.738Z,103768.59
2023-02-07T14:23:49.025Z,103767.19
2023-02-07T14:26:44.843Z,103752.97
2023-02-07T14:29:27.001Z,103764.13
2023-02-07T14:32:21.618Z,103760.13
2023-02-07T14:35:25.345Z,103767.59
2023-02-07T14:38:01.131Z,103769.88
2023-02-07T14:40:44.500Z,103770.41
2023-02-07T14:43:12.871Z,103776.47
2023-02-07T14:46:16.297Z,103772.44
2023-02-07T14:48:47.594Z,103777.03
2023-02-07T14:51:24.812Z,103770.94
2023-02-07T14:54:27.520Z,103779.75
2023-02-07T14:57:08.067Z,103784.13
2023-02-07T14:59:47.465Z,103781.91
2023-02-07T15:02:28.072Z,103783.88
2023-02-07T15:04:57.156Z,103793.88
2023-02-07T15:07:25.627Z,103784.59
2023-02-07T15:09:54.083Z,103785.38
2023-02-07T15:12:27.736Z,103789.06
2023-02-07T15:14:57.157Z,103785.09
2023-02-07T15:17:33.429Z,103794.09
2023-02-07T15:20:05.152Z,103792.78
2023-02-07T15:22:33.661Z,103784.16
2023-02-07T15:25:02.171Z,103787.16
2023-02-07T15:27:30.699Z,103787.97
2023-02-07T15:30:05.419Z,103777.41
2023-02-07T15:32:42.256Z,103775.44
2023-02-07T15:35:18.732Z,103772.66
2023-02-07T15:37:48.856Z,103775.88
2023-02-07T15:40:21.200Z,103778.09
2023-02-07T15:42:57.450Z,103780.38
2023-02-07T15:45:31.384Z,103782.38
2023-02-07T15:48:14.780Z,103797.53
2023-02-07T15:50:43.239Z,103785.91
2023-02-07T15:53:23.833Z,103788.75
2023-02-07T15:55:53.213Z,103786.78
2023-02-07T15:58:34.851Z,103793.34
2023-02-07T16:01:16.135Z,103784.03
2023-02-07T16:03:46.313Z,103782.78
2023-02-07T16:06:30.362Z,103790.09
2023-02-07T16:09:01.635Z,103795.03
2023-02-07T16:11:30.424Z,103793.66
2023-02-07T16:14:17.682Z,103791.59
2023-02-07T16:16:54.910Z,103788.75
2023-02-07T16:19:28.037Z,103781.13
2023-02-07T16:22:11.408Z,103781.03
2023-02-07T16:24:43.329Z,103789.53
2023-02-07T16:27:19.040Z,103784.66
2023-02-07T16:29:48.098Z,103787.19
2023-02-07T16:32:16.963Z,103791.59
2023-02-07T16:34:59.008Z,103783.56
2023-02-07T16:37:29.075Z,103793.19
2023-02-07T16:39:57.637Z,103803.72
2023-02-07T16:42:26.134Z,103794.25
2023-02-07T16:44:54.539Z,103795.44
2023-02-07T16:47:23.743Z,103795.91
2023-02-07T16:49:52.341Z,103791.81
2023-02-07T16:52:20.889Z,103801.69
2023-02-07T16:54:49.463Z,103804.28
2023-02-07T16:57:18.001Z,103811.69
2023-02-07T16:59:46.433Z,103811.16
2023-02-07T17:02:16.299Z,103816.72
2023-02-07T17:04:44.845Z,103827.78
2023-02-07T17:07:13.284Z,103810.66
2023-02-07T17:09:42.908Z,103810.09
2023-02-07T17:12:14.409Z,103811.41
2023-02-07T17:14:42.841Z,103821.47
2023-02-07T17:17:12.499Z,103811.00
2023-02-07T17:19:41.124Z,103811.25
2023-02-07T17:22:09.582Z,103822.03
2023-02-07T17:24:37.988Z,103829.78
2023-02-07T17:27:06.626Z,103825.72
2023-02-07T17:29:35.011Z,103825.03
2023-02-07T17:32:03.488Z,103826.22
2023-02-07T17:34:32.109Z,103822.72
2023-02-07T17:37:00.626Z,103823.69
2023-02-07T17:39:29.068Z,103824.97
2023-02-07T17:41:57.472Z,103825.84
2023-02-07T17:44:28.177Z,103816.81
2023-02-07T17:46:56.920Z,103830.16
2023-02-07T17:49:25.437Z,103823.31
2023-02-07T17:51:53.814Z,103823.47
2023-02-07T17:54:22.206Z,103820.88
2023-02-07T17:56:50.615Z,103813.28
2023-02-07T17:59:24.500Z,103813.00
2023-02-07T18:01:52.995Z,103812.09
2023-02-07T18:04:22.164Z,103806.13
2023-02-07T18:06:50.752Z,103809.22
2023-02-07T18:09:20.101Z,103800.97
2023-02-07T18:11:49.343Z,103808.84
2023-02-07T18:14:17.934Z,103804.81
2023-02-07T18:16:46.664Z,103813.88
2023-02-07T18:19:17.286Z,103809.47
2023-02-07T18:21:45.710Z,103795.63
2023-02-07T18:24:14.252Z,103796.78
2023-02-07T18:26:43.090Z,103808.19
2023-02-07T18:29:11.537Z,103803.09
2023-02-07T18:31:40.119Z,103815.66
2023-02-07T18:34:09.796Z,103813.72
2023-02-07T18:36:40.422Z,103811.31
2023-02-07T18:39:10.570Z,103814.78
2023-02-07T18:41:39.173Z,103818.47
2023-02-07T18:44:07.973Z,103828.06
2023-02-07T18:46:37.360Z,103818.53
2023-02-07T18:49:06.145Z,103819.53
2023-02-07T18:51:34.851Z,103821.13
2023-02-07T18:54:03.286Z,103816.13
2023-02-07T18:56:35.283Z,103817.00
2023-02-07T18:59:05.098Z,103817.06
2023-02-07T19:01:35.276Z,103817.88
2023-02-07T19:04:03.941Z,103815.69
2023-02-07T19:06:33.663Z,103813.59
2023-02-07T19:09:03.347Z,103813.72
2023-02-07T19:11:32.180Z,103807.81
2023-02-07T19:14:00.800Z,103820.63
2023-02-07T19:16:29.505Z,103812.25
2023-02-07T19:18:59.016Z,103808.78
2023-02-07T19:21:27.526Z,103813.59
2023-02-07T19:23:57.724Z,103807.59
2023-02-07T19:26:26.449Z,103816.25
2023-02-07T19:28:54.911Z,103812.06
2023-02-07T19:31:24.635Z,103807.97
2023-02-07T19:33:54.192Z,103806.75
2023-02-07T19:36:24.343Z,103803.00
2023-02-07T19:38:54.314Z,103801.63
2023-02-07T19:41:24.906Z,103800.53
2023-02-07T19:43:53.840Z,103808.63
2023-02-07T19:46:22.881Z,103805.56
2023-02-07T19:48:51.804Z,103793.09
2023-02-07T19:51:27.291Z,103805.91
2023-02-07T19:53:56.657Z,103799.19
2023-02-07T19:56:27.264Z,103800.56
2023-02-07T19:58:56.323Z,103797.47
2023-02-07T20:01:26.243Z,103797.53
2023-02-07T20:03:55.702Z,103798.22
2023-02-07T20:06:29.170Z,103790.56
2023-02-07T20:08:59.817Z,103802.19
2023-02-07T20:11:28.986Z,103799.00
2023-02-07T20:14:02.749Z,103790.13
2023-02-07T20:16:34.334Z,103791.94
2023-02-07T20:19:05.674Z,103784.13
2023-02-07T20:21:35.814Z,103786.91
2023-02-07T20:24:05.197Z,103778.38
2023-02-07T20:26:46.493Z,103778.44
2023-02-07T20:29:17.714Z,103781.06
2023-02-07T20:31:47.668Z,103781.59
2023-02-07T20:34:16.486Z,103786.13
2023-02-07T20:36:44.994Z,103780.59
2023-02-07T20:39:15.764Z,103777.84
2023-02-07T20:41:46.108Z,103778.13
2023-02-07T20:44:20.407Z,103778.84
2023-02-07T20:46:50.662Z,103769.34
2023-02-07T20:49:27.176Z,103769.53
2023-02-07T20:51:57.287Z,103760.63
2023-02-07T20:54:27.731Z,103755.56
2023-02-07T20:56:56.697Z,103750.31
2023-02-07T20:59:32.659Z,103758.00
2023-02-07T21:02:01.637Z,103762.66
2023-02-07T21:04:30.469Z,103753.41
2023-02-07T21:06:58.901Z,103761.53
2023-02-07T21:09:28.337Z,103749.78
2023-02-07T21:11:57.920Z,103747.72
2023-02-07T21:14:30.145Z,103749.56
2023-02-07T21:17:01.277Z,103750.41
2023-02-07T21:19:29.982Z,103740.25
2023-02-07T21:21:58.504Z,103741.06
2023-02-07T21:24:27.072Z,103749.25
2023-02-07T21:26:56.763Z,103755.91
2023-02-07T21:29:26.203Z,103761.09
2023-02-07T21:31:54.864Z,103761.13
2023-02-07T21:34:25.283Z,103759.41
2023-02-07T21:36:54.005Z,103756.88
2023-02-07T21:39:24.297Z,103752.94
2023-02-07T21:41:53.206Z,103751.72
2023-02-07T21:44:22.148Z,103748.44
2023-02-07T21:46:51.332Z,103751.91
2023-02-07T21:49:20.894Z,103749.97
2023-02-07T21:51:53.274Z,103743.91
2023-02-07T21:54:21.873Z,103750.84
2023-02-07T21:56:51.056Z,103741.97
2023-02-07T21:59:20.885Z,103741.56
2023-02-07T22:01:49.902Z,103740.22
2023-02-07T22:04:18.597Z,103746.44
2023-02-07T22:06:49.109Z,103747.88
2023-02-07T22:09:19.724Z,103740.53
2023-02-07T22:11:48.264Z,103742.94
2023-02-07T22:14:17.787Z,103747.81
2023-02-07T22:16:49.596Z,103730.19
2023-02-07T22:19:18.876Z,103738.59
2023-02-07T22:21:50.520Z,103731.53
2023-02-07T22:24:19.914Z,103727.84
2023-02-07T22:26:48.533Z,103725.16
2023-02-07T22:29:17.078Z,103728.16
2023-02-07T22:31:45.587Z,103722.16
2023-02-07T22:34:14.646Z,103727.31
2023-02-07T22:36:44.678Z,103730.25
2023-02-07T22:39:16.256Z,103733.06
2023-02-07T22:41:44.846Z,103731.31
2023-02-07T22:44:13.662Z,103737.63
2023-02-07T22:46:43.428Z,103722.97
2023-02-07T22:49:12.187Z,103731.94
2023-02-07T22:51:40.634Z,103728.16
2023-02-07T22:54:15.265Z,103726.25
2023-02-07T22:56:45.154Z,103723.59
2023-02-07T22:59:14.990Z,103723.41
2023-02-07T23:01:44.624Z,103723.44
2023-02-07T23:04:17.293Z,103729.16
2023-02-07T23:06:47.028Z,103728.28
2023-02-07T23:09:16.317Z,103729.28
2023-02-07T23:11:44.830Z,103728.53
2023-02-07T23:14:13.401Z,103730.22
2023-02-07T23:16:43.031Z,103729.38
2023-02-07T23:19:14.162Z,103729.63
2023-02-07T23:21:43.380Z,103731.19
2023-02-07T23:24:12.030Z,103722.63
2023-02-07T23:26:40.952Z,103724.66
2023-02-07T23:29:09.410Z,103715.63
2023-02-07T23:31:37.873Z,103720.06
2023-02-07T23:34:06.342Z,103728.97
2023-02-07T23:36:35.842Z,103725.13
2023-02-07T23:39:04.871Z,103733.56
2023-02-07T23:41:33.339Z,103720.31
2023-02-07T23:44:02.574Z,103711.38
2023-02-07T23:46:32.648Z,103720.31
2023-02-07T23:49:01.493Z,103717.72
2023-02-07T23:51:29.936Z,103730.44
2023-02-07T23:53:58.401Z,103720.81
2023-02-07T23:56:27.419Z,103722.53
2023-02-07T23:58:55.911Z,103725.06
